sensor_id;sensor_type;location;lat;lon;timestamp;pressure;altitude;pressure_sealevel;temperature;humidity
53506;BME280;39388;50.936;6.848;2022-09-09T00:04:16;100279.41;;;18.80;73.93
53506;BME280;39388;50.936;6.848;2022-09-09T00:13:01;100273.00;;;18.69;73.96
53506;BME280;39388;50.936;6.848;2022-09-09T00:21:30;100272.78;;;18.73;74.56
53506;BME280;39388;50.936;6.848;2022-09-09T00:24:27;100271.91;;;18.73;74.98
53506;BME280;39388;50.936;6.848;2022-09-09T00:27:11;100271.91;;;18.73;74.93
53506;BME280;39388;50.936;6.848;2022-09-09T00:30:03;100263.31;;;18.71;75.25
53506;BME280;39388;50.936;6.848;2022-09-09T00:32:34;100267.56;;;18.73;74.88
53506;BME280;39388;50.936;6.848;2022-09-09T00:35:27;100278.00;;;18.73;75.43
53506;BME280;39388;50.936;6.848;2022-09-09T00:41:25;100281.44;;;18.74;75.42
53506;BME280;39388;50.936;6.848;2022-09-09T00:44:13;100273.47;;;18.77;75.00
53506;BME280;39388;50.936;6.848;2022-09-09T00:50:31;100256.47;;;18.68;75.15
53506;BME280;39388;50.936;6.848;2022-09-09T00:58:24;100273.25;;;18.62;74.67
53506;BME280;39388;50.936;6.848;2022-09-09T01:01:03;100278.69;;;18.58;74.30
53506;BME280;39388;50.936;6.848;2022-09-09T01:03:51;100272.69;;;18.56;74.47
53506;BME280;39388;50.936;6.848;2022-09-09T01:06:35;100273.59;;;18.55;74.63
53506;BME280;39388;50.936;6.848;2022-09-09T01:09:33;100275.38;;;18.54;74.29
53506;BME280;39388;50.936;6.848;2022-09-09T01:12:16;100266.81;;;18.50;74.24
53506;BME280;39388;50.936;6.848;2022-09-09T01:14:49;100260.28;;;18.42;74.13
53506;BME280;39388;50.936;6.848;2022-09-09T01:17:30;100252.72;;;18.35;73.99
53506;BME280;39388;50.936;6.848;2022-09-09T01:20:24;100271.03;;;18.34;73.96
53506;BME280;39388;50.936;6.848;2022-09-09T01:26:26;100269.78;;;18.22;73.72
53506;BME280;39388;50.936;6.848;2022-09-09T01:28:58;100265.81;;;18.13;73.95
53506;BME280;39388;50.936;6.848;2022-09-09T01:31:32;100264.91;;;18.14;73.53
53506;BME280;39388;50.936;6.848;2022-09-09T01:34:12;100263.34;;;18.10;73.27
53506;BME280;39388;50.936;6.848;2022-09-09T01:36:48;100265.00;;;18.13;73.18
53506;BME280;39388;50.936;6.848;2022-09-09T01:39:21;100248.03;;;18.02;72.86
53506;BME280;39388;50.936;6.848;2022-09-09T01:41:52;100264.41;;;18.06;72.85
53506;BME280;39388;50.936;6.848;2022-09-09T01:44:24;100267.16;;;18.03;72.87
53506;BME280;39388;50.936;6.848;2022-09-09T01:46:56;100270.59;;;18.03;72.53
53506;BME280;39388;50.936;6.848;2022-09-09T01:49:26;100276.66;;;18.04;72.83
53506;BME280;39388;50.936;6.848;2022-09-09T01:51:57;100274.78;;;18.08;72.66
53506;BME280;39388;50.936;6.848;2022-09-09T01:54:29;100275.56;;;18.10;72.69
53506;BME280;39388;50.936;6.848;2022-09-09T01:57:17;100277.25;;;18.11;72.47
53506;BME280;39388;50.936;6.848;2022-09-09T02:02:26;100279.75;;;18.14;72.60
53506;BME280;39388;50.936;6.848;2022-09-09T02:07:40;100270.97;;;18.15;72.60
53506;BME280;39388;50.936;6.848;2022-09-09T02:10:25;100273.44;;;18.18;72.46
53506;BME280;39388;50.936;6.848;2022-09-09T02:13:06;100272.50;;;18.20;72.47
53506;BME280;39388;50.936;6.848;2022-09-09T02:16:07;100267.19;;;18.22;72.49
53506;BME280;39388;50.936;6.848;2022-09-09T02:21:30;100261.09;;;18.22;72.54
53506;BME280;39388;50.936;6.848;2022-09-09T02:24:04;100267.84;;;18.27;72.20
53506;BME280;39388;50.936;6.848;2022-09-09T02:26:41;100270.47;;;18.27;72.46
53506;BME280;39388;50.936;6.848;2022-09-09T02:29:16;100262.88;;;18.21;72.36
53506;BME280;39388;50.936;6.848;2022-09-09T02:31:49;100266.97;;;18.27;72.35
53506;BME280;39388;50.936;6.848;2022-09-09T02:34:22;100269.72;;;18.24;72.39
53506;BME280;39388;50.936;6.848;2022-09-09T02:36:55;100262.69;;;18.26;72.55
53506;BME280;39388;50.936;6.848;2022-09-09T02:39:27;100266.91;;;18.28;72.82
53506;BME280;39388;50.936;6.848;2022-09-09T02:41:57;100260.06;;;18.26;72.39
53506;BME280;39388;50.936;6.848;2022-09-09T02:44:28;100260.72;;;18.31;72.58
53506;BME280;39388;50.936;6.848;2022-09-09T02:50:35;100258.91;;;18.33;72.55
53506;BME280;39388;50.936;6.848;2022-09-09T02:55:47;100261.44;;;18.34;72.69
53506;BME280;39388;50.936;6.848;2022-09-09T02:58:21;100254.50;;;18.33;72.88
53506;BME280;39388;50.936;6.848;2022-09-09T03:00:52;100249.56;;;18.27;72.89
53506;BME280;39388;50.936;6.848;2022-09-09T03:03:23;100250.19;;;18.32;72.83
53506;BME280;39388;50.936;6.848;2022-09-09T03:05:54;100243.50;;;18.27;73.12
53506;BME280;39388;50.936;6.848;2022-09-09T03:08:24;100250.16;;;18.34;73.08
53506;BME280;39388;50.936;6.848;2022-09-09T03:10:55;100251.88;;;18.35;72.99
53506;BME280;39388;50.936;6.848;2022-09-09T03:13:25;100249.28;;;18.33;73.10
53506;BME280;39388;50.936;6.848;2022-09-09T03:15:56;100250.09;;;18.35;73.00
53506;BME280;39388;50.936;6.848;2022-09-09T03:18:26;100248.31;;;18.36;73.09
53506;BME280;39388;50.936;6.848;2022-09-09T03:20:58;100235.41;;;18.33;72.82
53506;BME280;39388;50.936;6.848;2022-09-09T03:23:29;100249.84;;;18.42;72.70
53506;BME280;39388;50.936;6.848;2022-09-09T03:26:00;100237.75;;;18.39;72.79
53506;BME280;39388;50.936;6.848;2022-09-09T03:28:30;100244.63;;;18.42;72.71
53506;BME280;39388;50.936;6.848;2022-09-09T03:31:05;100246.16;;;18.46;72.66
53506;BME280;39388;50.936;6.848;2022-09-09T03:33:37;100247.97;;;18.44;72.65
53506;BME280;39388;50.936;6.848;2022-09-09T03:36:08;100249.75;;;18.43;72.37
53506;BME280;39388;50.936;6.848;2022-09-09T03:38:41;100252.25;;;18.46;72.53
53506;BME280;39388;50.936;6.848;2022-09-09T03:41:11;100246.09;;;18.47;72.21
53506;BME280;39388;50.936;6.848;2022-09-09T03:43:42;100246.09;;;18.47;72.31
53506;BME280;39388;50.936;6.848;2022-09-09T03:46:13;100241.00;;;18.44;72.11
53506;BME280;39388;50.936;6.848;2022-09-09T03:48:43;100238.31;;;18.46;72.04
53506;BME280;39388;50.936;6.848;2022-09-09T03:51:14;100252.03;;;18.51;72.13
53506;BME280;39388;50.936;6.848;2022-09-09T03:53:46;100256.38;;;18.50;72.06
53506;BME280;39388;50.936;6.848;2022-09-09T03:56:16;100242.63;;;18.47;72.08
53506;BME280;39388;50.936;6.848;2022-09-09T03:58:46;100247.78;;;18.48;72.15
53506;BME280;39388;50.936;6.848;2022-09-09T04:01:17;100252.09;;;18.49;71.98
53506;BME280;39388;50.936;6.848;2022-09-09T04:03:47;100252.03;;;18.51;71.91
53506;BME280;39388;50.936;6.848;2022-09-09T04:06:18;100247.63;;;18.52;72.21
53506;BME280;39388;50.936;6.848;2022-09-09T04:08:50;100238.28;;;18.47;72.01
53506;BME280;39388;50.936;6.848;2022-09-09T04:11:22;100241.66;;;18.49;71.99
53506;BME280;39388;50.936;6.848;2022-09-09T04:13:52;100240.78;;;18.49;71.97
53506;BME280;39388;50.936;6.848;2022-09-09T04:16:23;100232.13;;;18.48;71.71
53506;BME280;39388;50.936;6.848;2022-09-09T04:18:53;100230.34;;;18.49;71.80
53506;BME280;39388;50.936;6.848;2022-09-09T04:21:24;100233.81;;;18.49;71.75
53506;BME280;39388;50.936;6.848;2022-09-09T04:23:54;100235.34;;;18.54;71.51
53506;BME280;39388;50.936;6.848;2022-09-09T04:26:24;100235.44;;;18.52;71.52
53506;BME280;39388;50.936;6.848;2022-09-09T04:28:55;100239.66;;;18.55;71.56
53506;BME280;39388;50.936;6.848;2022-09-09T04:31:26;100239.81;;;18.52;71.45
53506;BME280;39388;50.936;6.848;2022-09-09T04:33:56;100241.50;;;18.53;71.61
53506;BME280;39388;50.936;6.848;2022-09-09T04:36:26;100244.88;;;18.55;71.55
53506;BME280;39388;50.936;6.848;2022-09-09T04:38:57;100248.41;;;18.54;71.64
53506;BME280;39388;50.936;6.848;2022-09-09T04:41:28;100247.50;;;18.55;71.68
53506;BME280;39388;50.936;6.848;2022-09-09T04:43:58;100243.28;;;18.52;71.48
53506;BME280;39388;50.936;6.848;2022-09-09T04:46:30;100249.31;;;18.53;71.60
53506;BME280;39388;50.936;6.848;2022-09-09T04:49:01;100244.19;;;18.51;71.58
53506;BME280;39388;50.936;6.848;2022-09-09T04:51:31;100247.63;;;18.52;71.39
53506;BME280;39388;50.936;6.848;2022-09-09T04:54:01;100246.72;;;18.53;71.65
53506;BME280;39388;50.936;6.848;2022-09-09T04:56:32;100248.41;;;18.54;71.76
53506;BME280;39388;50.936;6.848;2022-09-09T04:59:02;100241.38;;;18.56;71.61
53506;BME280;39388;50.936;6.848;2022-09-09T05:01:33;100247.44;;;18.56;71.75
53506;BME280;39388;50.936;6.848;2022-09-09T05:04:03;100243.97;;;18.56;71.24
53506;BME280;39388;50.936;6.848;2022-09-09T05:06:34;100248.97;;;18.60;71.16
53506;BME280;39388;50.936;6.848;2022-09-09T05:09:06;100248.97;;;18.60;71.28
53506;BME280;39388;50.936;6.848;2022-09-09T05:11:36;100244.63;;;18.61;71.27
53506;BME280;39388;50.936;6.848;2022-09-09T05:14:08;100239.44;;;18.59;71.33
53506;BME280;39388;50.936;6.848;2022-09-09T05:16:38;100241.16;;;18.60;71.41
53506;BME280;39388;50.936;6.848;2022-09-09T05:19:09;100241.16;;;18.60;71.39
53506;BME280;39388;50.936;6.848;2022-09-09T05:21:39;100253.16;;;18.64;71.19
53506;BME280;39388;50.936;6.848;2022-09-09T05:24:11;100241.00;;;18.63;71.11
53506;BME280;39388;50.936;6.848;2022-09-09T05:26:42;100249.63;;;18.65;71.18
53506;BME280;39388;50.936;6.848;2022-09-09T05:29:13;100240.94;;;18.65;71.18
53506;BME280;39388;50.936;6.848;2022-09-09T05:31:43;100247.78;;;18.68;71.12
53506;BME280;39388;50.936;6.848;2022-09-09T05:34:14;100240.88;;;18.67;70.74
53506;BME280;39388;50.936;6.848;2022-09-09T05:36:44;100251.25;;;18.68;70.69
53506;BME280;39388;50.936;6.848;2022-09-09T05:39:14;100253.03;;;18.68;70.65
53506;BME280;39388;50.936;6.848;2022-09-09T05:41:45;100259.72;;;18.73;70.50
53506;BME280;39388;50.936;6.848;2022-09-09T05:44:15;100265.72;;;18.75;70.38
53506;BME280;39388;50.936;6.848;2022-09-09T05:46:46;100256.19;;;18.74;70.15
53506;BME280;39388;50.936;6.848;2022-09-09T05:49:17;100262.94;;;18.78;69.92
53506;BME280;39388;50.936;6.848;2022-09-09T05:51:48;100253.34;;;18.79;70.04
53506;BME280;39388;50.936;6.848;2022-09-09T05:54:18;100265.28;;;18.85;70.04
53506;BME280;39388;50.936;6.848;2022-09-09T05:56:48;100260.97;;;18.84;70.02
53506;BME280;39388;50.936;6.848;2022-09-09T05:59:22;100266.91;;;18.87;69.73
53506;BME280;39388;50.936;6.848;2022-09-09T06:01:53;100263.31;;;18.90;69.35
53506;BME280;39388;50.936;6.848;2022-09-09T06:04:24;100262.31;;;18.92;69.20
53506;BME280;39388;50.936;6.848;2022-09-09T06:06:54;100256.31;;;18.90;69.01
53506;BME280;39388;50.936;6.848;2022-09-09T06:09:25;100263.72;;;19.00;69.02
53506;BME280;39388;50.936;6.848;2022-09-09T06:11:55;100269.66;;;19.03;68.80
53506;BME280;39388;50.936;6.848;2022-09-09T06:14:27;100259.25;;;19.02;68.69
53506;BME280;39388;50.936;6.848;2022-09-09T06:16:58;100264.34;;;19.05;68.67
53506;BME280;39388;50.936;6.848;2022-09-09T06:19:28;100258.19;;;19.06;68.48
53506;BME280;39388;50.936;6.848;2022-09-09T06:21:58;100264.44;;;19.03;68.21
53506;BME280;39388;50.936;6.848;2022-09-09T06:24:29;100264.44;;;19.03;68.15
53506;BME280;39388;50.936;6.848;2022-09-09T06:27:00;100273.19;;;19.02;68.19
53506;BME280;39388;50.936;6.848;2022-09-09T06:29:30;100261.13;;;19.00;68.20
53506;BME280;39388;50.936;6.848;2022-09-09T06:32:01;100264.47;;;19.02;68.20
53506;BME280;39388;50.936;6.848;2022-09-09T06:34:32;100256.59;;;19.03;68.21
53506;BME280;39388;50.936;6.848;2022-09-09T06:37:02;100270.53;;;19.21;67.94
53506;BME280;39388;50.936;6.848;2022-09-09T06:39:33;100264.00;;;19.30;67.88
53506;BME280;39388;50.936;6.848;2022-09-09T06:42:03;100265.28;;;19.40;67.70
53506;BME280;39388;50.936;6.848;2022-09-09T06:44:34;100262.16;;;19.51;67.54
53506;BME280;39388;50.936;6.848;2022-09-09T06:47:04;100258.09;;;19.63;67.19
53506;BME280;39388;50.936;6.848;2022-09-09T06:49:35;100264.69;;;19.70;66.88
53506;BME280;39388;50.936;6.848;2022-09-09T06:52:05;100261.00;;;19.75;66.70
53506;BME280;39388;50.936;6.848;2022-09-09T06:54:36;100260.22;;;19.72;66.57
53506;BME280;39388;50.936;6.848;2022-09-09T06:57:07;100250.25;;;19.63;66.59
53506;BME280;39388;50.936;6.848;2022-09-09T06:59:37;100245.75;;;19.65;66.56
53506;BME280;39388;50.936;6.848;2022-09-09T07:02:08;100256.06;;;19.68;66.38
53506;BME280;39388;50.936;6.848;2022-09-09T07:04:38;100254.31;;;19.69;66.34
53506;BME280;39388;50.936;6.848;2022-09-09T07:07:09;100252.53;;;19.69;66.24
53506;BME280;39388;50.936;6.848;2022-09-09T07:09:42;100254.75;;;19.77;66.00
53506;BME280;39388;50.936;6.848;2022-09-09T07:12:12;100247.59;;;19.81;65.96
53506;BME280;39388;50.936;6.848;2022-09-09T07:14:43;100240.09;;;20.42;64.90
53506;BME280;39388;50.936;6.848;2022-09-09T07:17:13;100246.53;;;21.63;61.54
53506;BME280;39388;50.936;6.848;2022-09-09T07:19:44;100253.00;;;22.73;58.59
53506;BME280;39388;50.936;6.848;2022-09-09T07:22:14;100246.19;;;23.52;56.05
53506;BME280;39388;50.936;6.848;2022-09-09T07:24:46;100255.09;;;24.16;53.71
53506;BME280;39388;50.936;6.848;2022-09-09T07:27:16;100252.28;;;24.43;52.79
53506;BME280;39388;50.936;6.848;2022-09-09T07:29:46;100254.75;;;24.34;52.62
53506;BME280;39388;50.936;6.848;2022-09-09T07:32:17;100255.78;;;23.79;53.38
53506;BME280;39388;50.936;6.848;2022-09-09T07:34:49;100252.72;;;23.19;54.38
53506;BME280;39388;50.936;6.848;2022-09-09T07:37:20;100270.00;;;22.82;55.61
53506;BME280;39388;50.936;6.848;2022-09-09T07:39:51;100274.91;;;22.73;55.64
53506;BME280;39388;50.936;6.848;2022-09-09T07:42:21;100275.19;;;23.11;54.90
53506;BME280;39388;50.936;6.848;2022-09-09T07:44:52;100269.00;;;23.39;53.85
53506;BME280;39388;50.936;6.848;2022-09-09T07:47:24;100276.38;;;23.47;53.80
53506;BME280;39388;50.936;6.848;2022-09-09T07:49:55;100274.47;;;23.89;51.86
53506;BME280;39388;50.936;6.848;2022-09-09T07:52:26;100281.84;;;24.36;50.74
53506;BME280;39388;50.936;6.848;2022-09-09T07:54:57;100272.06;;;24.25;50.63
53506;BME280;39388;50.936;6.848;2022-09-09T07:57:28;100266.41;;;24.55;49.62
53506;BME280;39388;50.936;6.848;2022-09-09T08:00:00;100282.03;;;24.71;49.04
53506;BME280;39388;50.936;6.848;2022-09-09T08:02:32;100275.44;;;24.27;49.96
53506;BME280;39388;50.936;6.848;2022-09-09T08:05:02;100287.91;;;23.72;50.45
53506;BME280;39388;50.936;6.848;2022-09-09T08:07:33;100294.41;;;23.26;51.34
53506;BME280;39388;50.936;6.848;2022-09-09T08:10:04;100278.75;;;22.82;52.17
53506;BME280;39388;50.936;6.848;2022-09-09T08:12:35;100287.78;;;22.49;52.63
53506;BME280;39388;50.936;6.848;2022-09-09T08:15:05;100292.56;;;22.28;53.17
53506;BME280;39388;50.936;6.848;2022-09-09T08:17:35;100293.63;;;22.09;53.34
53506;BME280;39388;50.936;6.848;2022-09-09T08:20:08;100292.22;;;22.04;53.59
53506;BME280;39388;50.936;6.848;2022-09-09T08:22:38;100294.03;;;22.03;53.78
53506;BME280;39388;50.936;6.848;2022-09-09T08:25:08;100291.75;;;21.97;53.24
53506;BME280;39388;50.936;6.848;2022-09-09T08:27:40;100288.66;;;21.90;53.68
53506;BME280;39388;50.936;6.848;2022-09-09T08:30:11;100279.94;;;21.90;53.51
53506;BME280;39388;50.936;6.848;2022-09-09T08:32:41;100287.38;;;21.97;53.61
53506;BME280;39388;50.936;6.848;2022-09-09T08:35:13;100292.81;;;22.09;53.23
53506;BME280;39388;50.936;6.848;2022-09-09T08:37:43;100283.28;;;22.22;52.94
53506;BME280;39388;50.936;6.848;2022-09-09T08:40:22;100289.75;;;22.31;52.55
53506;BME280;39388;50.936;6.848;2022-09-09T08:42:59;100302.13;;;22.29;52.08
53506;BME280;39388;50.936;6.848;2022-09-09T08:45:47;100303.72;;;22.17;51.86
53506;BME280;39388;50.936;6.848;2022-09-09T08:51:19;100304.53;;;22.03;51.55
53506;BME280;39388;50.936;6.848;2022-09-09T08:53:50;100301.50;;;22.09;51.52
53506;BME280;39388;50.936;6.848;2022-09-09T08:56:24;100308.34;;;22.42;50.74
53506;BME280;39388;50.936;6.848;2022-09-09T08:58:55;100291.16;;;22.66;50.35
53506;BME280;39388;50.936;6.848;2022-09-09T09:01:41;100302.09;;;23.01;49.56
53506;BME280;39388;50.936;6.848;2022-09-09T09:04:31;100283.69;;;23.01;48.89
53506;BME280;39388;50.936;6.848;2022-09-09T09:13:01;100299.16;;;22.91;48.75
53506;BME280;39388;50.936;6.848;2022-09-09T09:15:36;100301.34;;;22.85;49.17
53506;BME280;39388;50.936;6.848;2022-09-09T09:18:11;100299.75;;;22.82;49.32
53506;BME280;39388;50.936;6.848;2022-09-09T09:23:47;100311.31;;;22.65;49.75
53506;BME280;39388;50.936;6.848;2022-09-09T09:26:21;100309.19;;;22.43;49.96
53506;BME280;39388;50.936;6.848;2022-09-09T09:28:56;100320.53;;;22.29;50.49
53506;BME280;39388;50.936;6.848;2022-09-09T09:31:27;100311.69;;;22.15;50.90
53506;BME280;39388;50.936;6.848;2022-09-09T09:33:57;100304.25;;;22.08;51.35
53506;BME280;39388;50.936;6.848;2022-09-09T09:36:43;100315.50;;;22.10;51.64
53506;BME280;39388;50.936;6.848;2022-09-09T09:39:33;100315.84;;;22.20;51.42
53506;BME280;39388;50.936;6.848;2022-09-09T09:42:12;100312.47;;;22.32;51.22
53506;BME280;39388;50.936;6.848;2022-09-09T09:44:46;100317.53;;;22.35;51.70
53506;BME280;39388;50.936;6.848;2022-09-09T09:47:17;100319.13;;;22.38;51.81
53506;BME280;39388;50.936;6.848;2022-09-09T09:49:56;100312.47;;;22.46;51.50
53506;BME280;39388;50.936;6.848;2022-09-09T09:52:30;100310.31;;;22.53;51.81
53506;BME280;39388;50.936;6.848;2022-09-09T09:55:03;100311.22;;;22.67;51.54
53506;BME280;39388;50.936;6.848;2022-09-09T09:57:36;100310.16;;;22.84;51.37
53506;BME280;39388;50.936;6.848;2022-09-09T10:02:46;100316.75;;;22.91;50.94
53506;BME280;39388;50.936;6.848;2022-09-09T10:05:22;100311.75;;;22.86;51.38
53506;BME280;39388;50.936;6.848;2022-09-09T10:08:04;100312.25;;;22.79;51.30
53506;BME280;39388;50.936;6.848;2022-09-09T10:11:12;100315.25;;;22.72;51.18
53506;BME280;39388;50.936;6.848;2022-09-09T10:14:24;100314.88;;;22.79;51.07
53506;BME280;39388;50.936;6.848;2022-09-09T10:17:29;100307.66;;;22.82;50.92
53506;BME280;39388;50.936;6.848;2022-09-09T10:22:47;100303.06;;;22.71;50.55
53506;BME280;39388;50.936;6.848;2022-09-09T10:34:14;100308.03;;;22.76;50.63
53506;BME280;39388;50.936;6.848;2022-09-09T10:36:50;100309.13;;;22.86;50.33
53506;BME280;39388;50.936;6.848;2022-09-09T10:39:39;100298.41;;;22.89;50.30
53506;BME280;39388;50.936;6.848;2022-09-09T10:42:15;100304.88;;;22.98;50.02
53506;BME280;39388;50.936;6.848;2022-09-09T10:53:35;100290.97;;;23.38;49.09
53506;BME280;39388;50.936;6.848;2022-09-09T10:56:16;100287.72;;;23.47;49.30
53506;BME280;39388;50.936;6.848;2022-09-09T10:58:59;100292.91;;;23.49;48.88
53506;BME280;39388;50.936;6.848;2022-09-09T11:01:42;100284.22;;;23.34;48.66
53506;BME280;39388;50.936;6.848;2022-09-09T11:04:22;100295.06;;;23.29;49.26
53506;BME280;39388;50.936;6.848;2022-09-09T11:06:55;100301.06;;;23.31;48.98
53506;BME280;39388;50.936;6.848;2022-09-09T11:09:28;100281.91;;;23.29;49.17
53506;BME280;39388;50.936;6.848;2022-09-09T11:12:01;100288.25;;;23.40;48.89
53506;BME280;39388;50.936;6.848;2022-09-09T11:14:39;100290.97;;;23.38;48.68
53506;BME280;39388;50.936;6.848;2022-09-09T11:17:24;100281.91;;;23.29;48.47
53506;BME280;39388;50.936;6.848;2022-09-09T11:19:57;100278.56;;;23.13;48.64
53506;BME280;39388;50.936;6.848;2022-09-09T11:22:32;100292.13;;;23.06;48.53
53506;BME280;39388;50.936;6.848;2022-09-09T11:25:17;100269.69;;;22.86;48.75
53506;BME280;39388;50.936;6.848;2022-09-09T11:34:12;100290.63;;;23.02;47.86
53506;BME280;39388;50.936;6.848;2022-09-09T11:44:42;100271.44;;;23.15;47.66
53506;BME280;39388;50.936;6.848;2022-09-09T11:47:31;100265.03;;;23.19;47.54
53506;BME280;39388;50.936;6.848;2022-09-09T11:52:40;100267.81;;;23.30;47.44
53506;BME280;39388;50.936;6.848;2022-09-09T11:55:29;100264.97;;;23.33;47.27
53506;BME280;39388;50.936;6.848;2022-09-09T11:58:14;100257.19;;;23.32;47.45
53506;BME280;39388;50.936;6.848;2022-09-09T12:00:49;100274.31;;;23.25;47.43
53506;BME280;39388;50.936;6.848;2022-09-09T12:03:45;100270.81;;;23.11;47.47
53506;BME280;39388;50.936;6.848;2022-09-09T12:06:42;100260.88;;;22.87;47.50
53506;BME280;39388;50.936;6.848;2022-09-09T12:19:47;100268.56;;;23.05;47.73
53506;BME280;39388;50.936;6.848;2022-09-09T12:28:18;100272.06;;;23.18;47.51
53506;BME280;39388;50.936;6.848;2022-09-09T12:30:56;100272.75;;;23.07;47.60
53506;BME280;39388;50.936;6.848;2022-09-09T12:33:44;100279.38;;;23.00;47.69
53506;BME280;39388;50.936;6.848;2022-09-09T12:36:18;100266.22;;;22.86;48.19
53506;BME280;39388;50.936;6.848;2022-09-09T12:38:49;100284.56;;;22.73;48.44
53506;BME280;39388;50.936;6.848;2022-09-09T12:41:26;100268.63;;;22.61;48.88
53506;BME280;39388;50.936;6.848;2022-09-09T12:44:09;100268.47;;;22.50;49.40
53506;BME280;39388;50.936;6.848;2022-09-09T12:46:42;100271.38;;;22.45;49.64
53506;BME280;39388;50.936;6.848;2022-09-09T12:49:36;100279.44;;;22.57;49.67
53506;BME280;39388;50.936;6.848;2022-09-09T12:52:14;100280.81;;;22.77;50.17
53506;BME280;39388;50.936;6.848;2022-09-09T12:54:46;100268.47;;;23.06;49.88
53506;BME280;39388;50.936;6.848;2022-09-09T12:57:17;100255.72;;;23.28;49.90
53506;BME280;39388;50.936;6.848;2022-09-09T12:59:48;100248.34;;;23.33;50.02
53506;BME280;39388;50.936;6.848;2022-09-09T13:02:24;100258.09;;;23.18;50.58
53506;BME280;39388;50.936;6.848;2022-09-09T13:05:06;100256.47;;;23.02;50.96
53506;BME280;39388;50.936;6.848;2022-09-09T13:07:37;100259.84;;;22.90;51.43
53506;BME280;39388;50.936;6.848;2022-09-09T13:10:11;100247.09;;;22.84;52.01
53506;BME280;39388;50.936;6.848;2022-09-09T13:12:42;100253.09;;;22.86;51.82
53506;BME280;39388;50.936;6.848;2022-09-09T13:15:19;100246.16;;;22.85;51.74
53506;BME280;39388;50.936;6.848;2022-09-09T13:18:04;100243.63;;;22.83;51.52
53506;BME280;39388;50.936;6.848;2022-09-09T13:20:36;100251.06;;;22.76;51.64
53506;BME280;39388;50.936;6.848;2022-09-09T13:23:11;100243.44;;;22.72;51.48
53506;BME280;39388;50.936;6.848;2022-09-09T13:25:57;100241.69;;;22.72;51.67
53506;BME280;39388;50.936;6.848;2022-09-09T13:28:30;100241.34;;;22.91;50.80
53506;BME280;39388;50.936;6.848;2022-09-09T13:31:18;100235.44;;;23.02;50.67
53506;BME280;39388;50.936;6.848;2022-09-09T13:33:49;100230.16;;;23.02;49.92
53506;BME280;39388;50.936;6.848;2022-09-09T13:36:34;100222.84;;;22.93;50.06
53506;BME280;39388;50.936;6.848;2022-09-09T13:39:05;100232.50;;;22.92;50.01
53506;BME280;39388;50.936;6.848;2022-09-09T13:41:41;100220.22;;;22.93;50.48
53506;BME280;39388;50.936;6.848;2022-09-09T13:47:05;100219.78;;;23.67;49.83
53506;BME280;39388;50.936;6.848;2022-09-09T13:49:36;100208.66;;;23.89;49.43
53506;BME280;39388;50.936;6.848;2022-09-09T13:52:12;100218.75;;;23.95;49.30
53506;BME280;39388;50.936;6.848;2022-09-09T13:54:47;100208.81;;;23.73;49.64
53506;BME280;39388;50.936;6.848;2022-09-09T13:57:22;100206.72;;;23.52;49.80
53506;BME280;39388;50.936;6.848;2022-09-09T13:59:53;100210.38;;;23.37;49.85
53506;BME280;39388;50.936;6.848;2022-09-09T14:02:26;100203.06;;;23.15;50.57
53506;BME280;39388;50.936;6.848;2022-09-09T14:04:57;100208.38;;;23.00;50.44
53506;BME280;39388;50.936;6.848;2022-09-09T14:07:27;100216.94;;;22.89;50.65
53506;BME280;39388;50.936;6.848;2022-09-09T14:09:59;100243.19;;;22.76;51.15
53506;BME280;39388;50.936;6.848;2022-09-09T14:12:30;100274.75;;;22.62;51.91
53506;BME280;39388;50.936;6.848;2022-09-09T14:15:00;100270.34;;;22.34;54.21
53506;BME280;39388;50.936;6.848;2022-09-09T14:17:31;100266.09;;;22.02;55.79
53506;BME280;39388;50.936;6.848;2022-09-09T14:20:05;100268.66;;;21.73;57.82
53506;BME280;39388;50.936;6.848;2022-09-09T14:22:40;100266.44;;;21.51;59.54
53506;BME280;39388;50.936;6.848;2022-09-09T14:25:10;100272.31;;;21.24;60.88
53506;BME280;39388;50.936;6.848;2022-09-09T14:27:43;100269.03;;;21.04;62.03
53506;BME280;39388;50.936;6.848;2022-09-09T14:30:16;100269.09;;;20.87;62.85
53506;BME280;39388;50.936;6.848;2022-09-09T14:32:46;100259.25;;;20.76;63.36
53506;BME280;39388;50.936;6.848;2022-09-09T14:35:16;100254.84;;;20.60;64.22
53506;BME280;39388;50.936;6.848;2022-09-09T14:37:48;100262.19;;;20.54;64.41
53506;BME280;39388;50.936;6.848;2022-09-09T14:40:18;100264.88;;;20.52;65.12
53506;BME280;39388;50.936;6.848;2022-09-09T14:42:49;100254.81;;;20.44;65.41
53506;BME280;39388;50.936;6.848;2022-09-09T14:45:19;100257.25;;;20.47;65.70
53506;BME280;39388;50.936;6.848;2022-09-09T14:47:51;100264.03;;;20.52;65.99
53506;BME280;39388;50.936;6.848;2022-09-09T14:50:23;100237.34;;;20.45;66.38
53506;BME280;39388;50.936;6.848;2022-09-09T14:52:53;100263.28;;;20.66;66.88
53506;BME280;39388;50.936;6.848;2022-09-09T14:55:23;100268.84;;;20.75;67.11
53506;BME280;39388;50.936;6.848;2022-09-09T14:57:54;100274.53;;;20.84;67.53
53506;BME280;39388;50.936;6.848;2022-09-09T15:00:24;100266.31;;;20.90;67.45
53506;BME280;39388;50.936;6.848;2022-09-09T15:02:55;100256.72;;;20.90;67.45
53506;BME280;39388;50.936;6.848;2022-09-09T15:05:25;100252.63;;;21.01;67.96
53506;BME280;39388;50.936;6.848;2022-09-09T15:07:57;100262.34;;;20.99;68.00
53506;BME280;39388;50.936;6.848;2022-09-09T15:10:28;100253.28;;;21.04;68.14
53506;BME280;39388;50.936;6.848;2022-09-09T15:13:01;100244.88;;;20.99;67.66
53506;BME280;39388;50.936;6.848;2022-09-09T15:15:32;100274.09;;;21.07;67.38
53506;BME280;39388;50.936;6.848;2022-09-09T15:18:04;100267.25;;;21.05;67.51
53506;BME280;39388;50.936;6.848;2022-09-09T15:20:35;100262.94;;;21.04;67.62
53506;BME280;39388;50.936;6.848;2022-09-09T15:23:07;100278.69;;;21.04;67.47